createdAt,value
2018-07-15T00:02:18.381Z,24.40
2018-07-15T00:04:45.563Z,24.30
2018-07-15T00:07:12.857Z,24.30
2018-07-15T00:09:40.105Z,24.30
2018-07-15T00:12:07.493Z,24.30
2018-07-15T00:14:34.666Z,24.30
2018-07-15T00:17:02.217Z,24.30
2018-07-15T00:19:29.389Z,24.30
2018-07-15T00:21:56.602Z,24.30
2018-07-15T00:24:24.075Z,24.30
2018-07-15T00:26:51.286Z,24.30
2018-07-15T00:29:18.462Z,24.30
2018-07-15T00:31:45.686Z,24.30
2018-07-15T00:34:13.147Z,24.30
2018-07-15T00:36:40.339Z,24.30
2018-07-15T00:39:07.629Z,24.30
2018-07-15T00:41:34.901Z,24.30
2018-07-15T00:44:02.350Z,24.30
2018-07-15T00:46:29.559Z,24.20
2018-07-15T00:48:57.118Z,24.20
2018-07-15T00:51:24.310Z,24.20
2018-07-15T00:53:53.542Z,24.20
2018-07-15T00:56:20.766Z,24.20
2018-07-15T00:58:47.953Z,24.20
2018-07-15T01:01:15.556Z,24.20
2018-07-15T01:06:09.991Z,24.20
2018-07-15T01:08:37.482Z,24.20
2018-07-15T01:11:04.645Z,24.20
2018-07-15T01:13:31.840Z,24.20
2018-07-15T01:18:26.653Z,24.10
2018-07-15T01:20:53.901Z,24.10
2018-07-15T01:23:21.090Z,24.10
2018-07-15T01:30:43.270Z,24.20
2018-07-15T01:35:37.709Z,24.10
2018-07-15T01:38:05.144Z,24.10
2018-07-15T01:42:59.581Z,24.00
2018-07-15T01:45:27.110Z,24.00
2018-07-15T01:50:21.524Z,24.00
2018-07-15T01:52:49.030Z,24.00
2018-07-15T01:55:16.365Z,24.00
2018-07-15T01:57:43.570Z,23.90
2018-07-15T02:00:11.057Z,23.90
2018-07-15T02:05:06.161Z,23.90
2018-07-15T02:07:33.954Z,23.90
2018-07-15T02:10:01.174Z,23.90
2018-07-15T02:12:28.382Z,23.90
2018-07-15T02:14:55.937Z,23.90
2018-07-15T02:17:23.113Z,23.80
2018-07-15T02:22:17.543Z,23.80
2018-07-15T02:24:44.794Z,23.80
2018-07-15T02:27:11.998Z,23.80
2018-07-15T02:29:39.241Z,23.80
2018-07-15T02:32:06.471Z,23.80
2018-07-15T02:34:33.694Z,23.80
2018-07-15T02:37:00.910Z,23.80
2018-07-15T02:39:28.121Z,23.80
2018-07-15T02:46:50.129Z,23.80
2018-07-15T02:49:17.641Z,23.80
2018-07-15T02:51:44.856Z,23.80
2018-07-15T02:54:12.063Z,23.80
2018-07-15T02:59:06.850Z,23.70
2018-07-15T03:01:34.033Z,23.70
2018-07-15T03:04:01.605Z,23.70
2018-07-15T03:06:28.890Z,23.70
2018-07-15T03:13:50.983Z,23.70
2018-07-15T03:16:18.211Z,23.70
2018-07-15T03:18:47.727Z,23.70
2018-07-15T03:21:14.885Z,23.70
2018-07-15T03:26:09.585Z,23.70
2018-07-15T03:28:36.763Z,23.70
2018-07-15T03:33:31.589Z,23.70
2018-07-15T03:38:25.985Z,23.60
2018-07-15T03:40:53.641Z,23.60
2018-07-15T03:43:20.845Z,23.60
2018-07-15T03:45:48.029Z,23.60
2018-07-15T03:48:15.195Z,23.60
2018-07-15T03:50:42.374Z,23.60
2018-07-15T03:53:09.825Z,23.60
2018-07-15T03:55:37.016Z,23.50
2018-07-15T03:58:04.445Z,23.50
2018-07-15T04:00:32.013Z,23.50
2018-07-15T04:02:59.156Z,23.50
2018-07-15T04:05:26.341Z,23.50
2018-07-15T04:10:22.794Z,23.50
2018-07-15T04:15:17.209Z,23.50
2018-07-15T04:17:47.832Z,23.50
2018-07-15T04:20:15.034Z,23.40
2018-07-15T04:22:42.197Z,23.40
2018-07-15T04:25:09.702Z,23.40
2018-07-15T04:27:36.891Z,23.40
2018-07-15T04:30:04.120Z,23.40
2018-07-15T04:32:31.301Z,23.40
2018-07-15T04:37:25.691Z,23.40
2018-07-15T04:39:53.557Z,23.40
2018-07-15T04:42:20.749Z,23.40
2018-07-15T04:47:15.437Z,23.40
2018-07-15T04:49:42.630Z,23.40
2018-07-15T04:52:10.205Z,23.50
2018-07-15T04:54:37.705Z,23.50
2018-07-15T04:57:04.870Z,23.50
2018-07-15T04:59:32.055Z,23.60
2018-07-15T05:01:59.612Z,23.60
2018-07-15T05:06:53.989Z,23.70
2018-07-15T05:09:21.192Z,23.80
2018-07-15T05:11:48.370Z,23.80
2018-07-15T05:14:15.542Z,23.90
2018-07-15T05:16:43.050Z,23.90
2018-07-15T05:19:10.253Z,24.00
2018-07-15T05:21:37.438Z,24.00
2018-07-15T05:24:04.949Z,24.10
2018-07-15T05:26:32.116Z,24.20
2018-07-15T05:28:59.277Z,24.20
2018-07-15T05:31:26.777Z,24.20
2018-07-15T05:33:53.936Z,24.30
2018-07-15T05:36:21.101Z,24.30
2018-07-15T05:38:54.301Z,24.40
2018-07-15T05:41:21.457Z,24.50
2018-07-15T05:43:49.017Z,24.50
2018-07-15T05:46:16.142Z,24.60
2018-07-15T05:48:43.325Z,24.70
2018-07-15T05:51:10.889Z,24.80
2018-07-15T05:53:38.063Z,24.80
2018-07-15T05:58:32.765Z,25.10
2018-07-15T06:00:59.923Z,25.20
2018-07-15T06:03:27.104Z,25.30
2018-07-15T06:08:21.477Z,25.40
2018-07-15T06:10:48.742Z,25.40
2018-07-15T06:13:16.114Z,25.40
2018-07-15T06:15:43.257Z,25.40
2018-07-15T06:18:10.422Z,25.30
2018-07-15T06:20:37.981Z,25.30
2018-07-15T06:23:05.190Z,25.30
2018-07-15T06:25:32.363Z,25.30
2018-07-15T06:27:59.861Z,25.30
2018-07-15T06:30:27.021Z,25.30
2018-07-15T06:32:54.217Z,25.30
2018-07-15T06:35:21.406Z,25.30
2018-07-15T06:37:48.560Z,25.40
2018-07-15T06:40:15.825Z,25.40
2018-07-15T06:45:10.171Z,25.40
2018-07-15T06:50:05.106Z,25.40
2018-07-15T06:52:32.278Z,25.40
2018-07-15T06:55:00.109Z,25.40
2018-07-15T06:57:27.301Z,25.30
2018-07-15T06:59:54.481Z,25.30
2018-07-15T07:02:21.648Z,25.30
2018-07-15T07:04:48.809Z,25.30
2018-07-15T07:07:15.971Z,25.30
2018-07-15T07:09:43.143Z,25.20
2018-07-15T07:12:10.324Z,25.20
2018-07-15T07:17:04.736Z,25.20
2018-07-15T07:21:59.109Z,25.20
2018-07-15T07:24:26.585Z,25.20
2018-07-15T07:26:53.769Z,25.20
2018-07-15T07:31:48.466Z,25.20
2018-07-15T07:34:15.634Z,25.20
2018-07-15T07:36:42.800Z,25.20
2018-07-15T07:41:37.515Z,25.30
2018-07-15T07:46:31.987Z,25.20
2018-07-15T07:48:59.166Z,25.30
2018-07-15T07:51:26.436Z,25.30
2018-07-15T07:53:53.727Z,25.30
2018-07-15T07:56:20.885Z,25.40
2018-07-15T07:58:48.403Z,25.40
2018-07-15T08:01:15.625Z,25.40
2018-07-15T08:03:42.846Z,25.40
2018-07-15T08:08:37.274Z,25.50
2018-07-15T08:11:04.465Z,25.60
2018-07-15T08:13:32.015Z,25.60
2018-07-15T08:15:59.197Z,25.60
2018-07-15T08:18:26.385Z,25.60
2018-07-15T08:20:53.563Z,25.70
2018-07-15T08:23:20.752Z,25.70
2018-07-15T08:25:47.929Z,25.80
2018-07-15T08:28:15.176Z,25.80
2018-07-15T08:30:53.912Z,25.90
2018-07-15T08:33:21.058Z,25.90
2018-07-15T08:35:48.247Z,26.00
2018-07-15T08:40:42.817Z,26.00
2018-07-15T08:43:10.013Z,26.00
2018-07-15T08:45:37.183Z,26.00
2018-07-15T08:48:05.021Z,26.10
2018-07-15T08:50:32.207Z,26.20
2018-07-15T08:55:26.659Z,26.30
2018-07-15T08:57:53.833Z,26.30
2018-07-15T09:00:21.392Z,26.30
2018-07-15T09:02:48.579Z,26.30
2018-07-15T09:05:15.759Z,26.30
2018-07-15T09:10:10.189Z,26.30
2018-07-15T09:12:37.418Z,26.40
2018-07-15T09:15:04.570Z,26.40
2018-07-15T09:17:31.742Z,26.40
2018-07-15T09:19:58.938Z,26.50
2018-07-15T09:22:26.107Z,26.50
2018-07-15T09:24:53.577Z,26.50
2018-07-15T09:27:20.756Z,26.50
2018-07-15T09:29:47.917Z,26.50
2018-07-15T09:32:15.461Z,26.50
2018-07-15T09:34:42.633Z,26.50
2018-07-15T09:37:09.812Z,26.60
2018-07-15T09:39:36.986Z,26.70
2018-07-15T09:42:04.149Z,26.70
2018-07-15T09:44:31.309Z,26.70
2018-07-15T09:46:58.513Z,26.80
2018-07-15T09:51:52.925Z,26.90
2018-07-15T09:56:47.421Z,26.90
2018-07-15T09:59:14.579Z,27.00
2018-07-15T10:01:41.737Z,27.00
2018-07-15T10:04:09.073Z,27.00
2018-07-15T10:06:36.235Z,27.10
2018-07-15T10:09:04.073Z,27.00
2018-07-15T10:11:31.581Z,27.10
2018-07-15T10:13:58.737Z,27.10
2018-07-15T10:16:25.882Z,27.10
2018-07-15T10:18:53.400Z,27.10
2018-07-15T10:21:20.485Z,27.10
2018-07-15T10:23:47.642Z,27.10
2018-07-15T10:26:15.051Z,27.10
2018-07-15T10:28:42.237Z,27.10
2018-07-15T10:31:09.373Z,27.20
2018-07-15T10:36:07.840Z,27.30
2018-07-15T10:38:35.009Z,27.40
2018-07-15T10:41:02.158Z,27.60
2018-07-15T10:43:29.713Z,27.60
2018-07-15T10:45:56.852Z,27.70
2018-07-15T10:48:24.007Z,27.70
2018-07-15T10:50:51.794Z,27.80
2018-07-15T10:53:18.953Z,27.80
2018-07-15T10:55:46.121Z,27.90
2018-07-15T10:58:13.254Z,28.00
2018-07-15T11:00:40.433Z,28.00
2018-07-15T11:05:35.006Z,28.10
2018-07-15T11:08:02.175Z,28.20
2018-07-15T11:10:29.345Z,28.20
2018-07-15T11:12:56.805Z,28.30
2018-07-15T11:15:23.965Z,28.40
2018-07-15T11:17:51.141Z,28.50
2018-07-15T11:22:45.526Z,28.60
2018-07-15T11:25:12.686Z,28.60
2018-07-15T11:27:39.875Z,28.60
2018-07-15T11:30:07.102Z,28.60
2018-07-15T11:32:34.294Z,28.60
2018-07-15T11:37:28.740Z,28.60
2018-07-15T11:42:23.086Z,28.80
2018-07-15T11:44:50.553Z,28.90
2018-07-15T11:47:17.711Z,28.90
2018-07-15T11:49:44.886Z,29.00
2018-07-15T11:52:12.055Z,29.10
2018-07-15T11:54:39.297Z,29.10
2018-07-15T11:59:33.965Z,29.20
2018-07-15T12:02:01.105Z,29.30
2018-07-15T12:04:28.322Z,29.40
2018-07-15T12:09:22.720Z,29.50
2018-07-15T12:11:49.871Z,29.60
2018-07-15T12:14:17.038Z,29.60
2018-07-15T12:16:44.345Z,29.50
2018-07-15T12:19:11.853Z,29.50
2018-07-15T12:21:39.018Z,29.50
2018-07-15T12:24:06.265Z,29.50
2018-07-15T12:26:33.723Z,29.60
2018-07-15T12:29:00.875Z,29.50
2018-07-15T12:31:28.040Z,29.60
2018-07-15T12:33:55.504Z,29.60
2018-07-15T12:36:22.704Z,29.60
2018-07-15T12:38:49.902Z,29.60
2018-07-15T12:41:19.425Z,29.60
2018-07-15T12:43:46.619Z,29.50
2018-07-15T12:46:13.774Z,29.50
2018-07-15T12:51:08.138Z,29.60
2018-07-15T12:53:35.637Z,29.60
2018-07-15T12:58:30.010Z,29.60
2018-07-15T13:00:57.154Z,29.70
2018-07-15T13:03:24.281Z,29.80
2018-07-15T13:05:51.451Z,29.80
2018-07-15T13:10:46.230Z,29.90
2018-07-15T13:15:40.929Z,30.00
2018-07-15T13:18:08.093Z,29.90
2018-07-15T13:20:35.242Z,29.90
2018-07-15T13:23:02.802Z,30.00
2018-07-15T13:25:29.969Z,30.00
2018-07-15T13:27:57.126Z,30.20
2018-07-15T13:30:24.581Z,30.20
2018-07-15T13:32:51.761Z,30.30
2018-07-15T13:37:46.148Z,30.30
2018-07-15T13:40:13.326Z,30.40
2018-07-15T13:42:40.504Z,30.30
2018-07-15T13:47:34.907Z,30.20
2018-07-15T13:52:29.265Z,30.30
2018-07-15T13:54:56.386Z,30.30
2018-07-15T13:57:23.542Z,30.30
2018-07-15T13:59:50.701Z,30.30
2018-07-15T14:02:17.858Z,30.30
2018-07-15T14:07:12.174Z,30.30
2018-07-15T14:12:06.505Z,30.50
2018-07-15T14:14:33.650Z,30.40
2018-07-15T14:17:00.821Z,30.40
2018-07-15T14:19:28.000Z,30.50
2018-07-15T14:21:55.150Z,30.50
2018-07-15T14:24:22.680Z,30.60
2018-07-15T14:26:49.845Z,30.60
2018-07-15T14:29:17.062Z,30.60
2018-07-15T14:31:44.206Z,30.50
2018-07-15T14:34:11.393Z,30.50
2018-07-15T14:41:33.050Z,30.40
2018-07-15T14:44:00.237Z,30.30
2018-07-15T14:46:27.453Z,30.30
2018-07-15T14:48:54.885Z,30.20
2018-07-15T14:51:22.055Z,30.20
2018-07-15T14:53:49.214Z,30.10
2018-07-15T14:56:16.754Z,30.10
2018-07-15T14:58:43.890Z,30.10
2018-07-15T15:01:11.025Z,30.10
2018-07-15T15:06:05.338Z,30.00
2018-07-15T15:10:59.694Z,30.10
2018-07-15T15:13:26.834Z,30.00
2018-07-15T15:15:53.984Z,29.90
2018-07-15T15:18:21.459Z,29.90
2018-07-15T15:20:48.608Z,29.90
2018-07-15T15:23:15.721Z,29.80
2018-07-15T15:28:10.106Z,29.80
2018-07-15T15:30:37.255Z,29.70
2018-07-15T15:33:04.705Z,29.70
2018-07-15T15:35:31.839Z,29.80
2018-07-15T15:37:58.973Z,29.80
2018-07-15T15:42:53.291Z,29.90
2018-07-15T15:45:20.429Z,29.90
2018-07-15T15:50:15.069Z,29.80
2018-07-15T15:52:42.214Z,29.90
2018-07-15T16:00:04.170Z,29.90
2018-07-15T16:04:58.814Z,30.00
2018-07-15T16:07:25.961Z,30.00
2018-07-15T16:14:47.798Z,30.10
2018-07-15T16:17:14.946Z,30.10
2018-07-15T16:19:42.122Z,30.20
2018-07-15T16:22:09.253Z,30.20
2018-07-15T16:24:36.411Z,30.20
2018-07-15T16:27:03.857Z,30.20
2018-07-15T16:29:30.993Z,30.10
2018-07-15T16:31:58.137Z,30.10
2018-07-15T16:34:25.271Z,30.10
2018-07-15T16:39:19.589Z,30.00
2018-07-15T16:44:13.969Z,29.90
2018-07-15T16:46:41.106Z,30.00
2018-07-15T16:49:08.240Z,30.00
2018-07-15T16:51:35.382Z,30.00
2018-07-15T16:54:02.525Z,30.00
2018-07-15T16:58:56.842Z,29.90
2018-07-15T17:01:24.343Z,30.00
2018-07-15T17:03:51.497Z,29.90
2018-07-15T17:06:18.638Z,29.90
2018-07-15T17:08:45.777Z,29.90
2018-07-15T17:11:12.989Z,29.80
2018-07-15T17:13:40.118Z,29.70
2018-07-15T17:16:07.297Z,29.70
2018-07-15T17:18:34.837Z,29.70
2018-07-15T17:21:01.983Z,29.80
2018-07-15T17:23:29.250Z,29.70
2018-07-15T17:25:56.817Z,29.70
2018-07-15T17:28:23.942Z,29.70
2018-07-15T17:30:51.091Z,29.70
2018-07-15T17:33:18.589Z,29.70
2018-07-15T17:35:45.735Z,29.60
2018-07-15T17:38:12.867Z,29.60
2018-07-15T17:40:40.101Z,29.70
2018-07-15T17:43:07.146Z,29.60
2018-07-15T17:45:34.321Z,29.60
2018-07-15T17:50:29.155Z,29.50
2018-07-15T17:52:56.409Z,29.50
2018-07-15T18:00:18.871Z,29.40
2018-07-15T18:02:46.402Z,29.40
2018-07-15T18:05:13.570Z,29.30
2018-07-15T18:07:40.726Z,29.30
2018-07-15T18:10:07.925Z,29.30
2018-07-15T18:12:35.080Z,29.30
2018-07-15T18:19:56.756Z,29.10
2018-07-15T18:22:23.882Z,29.10
2018-07-15T18:24:51.033Z,29.10
2018-07-15T18:27:18.215Z,29.00
2018-07-15T18:29:45.352Z,28.90
2018-07-15T18:32:12.500Z,28.90
2018-07-15T18:34:39.625Z,28.80
2018-07-15T18:37:06.768Z,28.80
2018-07-15T18:39:33.905Z,28.70
2018-07-15T18:42:01.058Z,28.70
2018-07-15T18:44:28.571Z,28.60
2018-07-15T18:46:55.768Z,28.60
2018-07-15T18:49:23.106Z,28.50
2018-07-15T18:54:17.951Z,28.50
2018-07-15T18:59:12.713Z,28.40
2018-07-15T19:01:39.897Z,28.30
2018-07-15T19:04:07.066Z,28.30
2018-07-15T19:06:34.254Z,28.30
2018-07-15T19:09:01.496Z,28.30
2018-07-15T19:13:55.906Z,28.20
2018-07-15T19:16:23.099Z,28.20
2018-07-15T19:18:50.289Z,28.10
2018-07-15T19:21:17.466Z,28.10
2018-07-15T19:23:44.586Z,28.10
2018-07-15T19:26:11.789Z,28.10
2018-07-15T19:31:12.310Z,28.00
2018-07-15T19:33:39.472Z,27.90
2018-07-15T19:36:07.025Z,27.90
2018-07-15T19:38:34.523Z,27.90
2018-07-15T19:41:01.694Z,27.90
2018-07-15T19:43:28.852Z,27.80
2018-07-15T19:45:56.014Z,27.70
2018-07-15T19:48:23.248Z,27.70
2018-07-15T19:53:18.074Z,27.60
2018-07-15T19:58:13.041Z,27.60
2018-07-15T20:00:40.221Z,27.60
2018-07-15T20:03:07.384Z,27.50
2018-07-15T20:05:34.570Z,27.50
2018-07-15T20:08:01.746Z,27.40
2018-07-15T20:10:29.021Z,27.40
2018-07-15T20:12:56.252Z,27.40
2018-07-15T20:15:24.064Z,27.30
2018-07-15T20:17:51.241Z,27.30
2018-07-15T20:20:18.410Z,27.30
2018-07-15T20:25:12.891Z,27.30
2018-07-15T20:27:40.110Z,27.20
2018-07-15T20:32:34.517Z,27.10
2018-07-15T20:35:02.090Z,27.10
2018-07-15T20:37:29.300Z,27.10
2018-07-15T20:39:56.877Z,27.00
2018-07-15T20:42:24.034Z,27.00
2018-07-15T20:44:51.183Z,26.90
2018-07-15T20:47:18.352Z,26.90
2018-07-15T20:52:12.742Z,26.90
2018-07-15T20:54:39.917Z,26.80
2018-07-15T20:59:34.312Z,26.80
2018-07-15T21:02:01.510Z,26.80
2018-07-15T21:04:28.733Z,26.80
2018-07-15T21:09:23.154Z,26.70
2018-07-15T21:14:17.517Z,26.70
2018-07-15T21:16:44.701Z,26.70
2018-07-15T21:19:11.952Z,26.60
2018-07-15T21:21:39.053Z,26.60
2018-07-15T21:24:06.229Z,26.60
2018-07-15T21:26:34.297Z,26.60
2018-07-15T21:29:01.456Z,26.60
2018-07-15T21:31:28.668Z,26.50
2018-07-15T21:33:55.845Z,26.50
2018-07-15T21:38:50.174Z,26.50
2018-07-15T21:41:17.329Z,26.50
2018-07-15T21:43:45.255Z,26.50
2018-07-15T21:46:12.423Z,26.50
2018-07-15T21:48:39.578Z,26.40
2018-07-15T21:53:33.925Z,26.50
2018-07-15T21:56:01.079Z,26.40
2018-07-15T21:58:28.237Z,26.40
2018-07-15T22:00:55.830Z,26.40
2018-07-15T22:03:23.688Z,26.40
2018-07-15T22:05:50.860Z,26.40
2018-07-15T22:08:29.605Z,26.40
2018-07-15T22:10:57.143Z,26.40
2018-07-15T22:13:24.309Z,26.40
2018-07-15T22:15:51.469Z,26.40
2018-07-15T22:18:19.019Z,26.40
2018-07-15T22:20:46.170Z,26.40
2018-07-15T22:23:13.333Z,26.40
2018-07-15T22:25:40.791Z,26.40
2018-07-15T22:28:07.938Z,26.40
2018-07-15T22:30:35.082Z,26.40
2018-07-15T22:33:02.237Z,26.40
2018-07-15T22:35:29.409Z,26.40
2018-07-15T22:37:56.869Z,26.40
2018-07-15T22:40:24.017Z,26.40
2018-07-15T22:42:51.161Z,26.40
2018-07-15T22:45:18.379Z,26.40
2018-07-15T22:47:45.918Z,26.40
2018-07-15T22:50:13.087Z,26.40
2018-07-15T22:52:40.271Z,26.40
2018-07-15T22:55:07.525Z,26.40
2018-07-15T22:57:34.701Z,26.40
2018-07-15T23:00:02.205Z,26.40
2018-07-15T23:02:29.381Z,26.40
2018-07-15T23:05:37.217Z,26.40
2018-07-15T23:08:04.977Z,26.40
2018-07-15T23:10:32.181Z,26.30
2018-07-15T23:12:59.778Z,26.30
2018-07-15T23:17:54.170Z,26.30
2018-07-15T23:20:21.346Z,26.30
2018-07-15T23:25:15.724Z,26.20
2018-07-15T23:27:42.882Z,26.20
2018-07-15T23:30:12.469Z,26.20
2018-07-15T23:32:39.661Z,26.20
2018-07-15T23:37:34.857Z,26.20
2018-07-15T23:40:02.045Z,26.20
2018-07-15T23:42:29.213Z,26.20
2018-07-15T23:46:25.959Z,26.20
2018-07-15T23:48:53.094Z,26.10
2018-07-15T23:51:20.242Z,26.10
2018-07-15T23:56:14.587Z,26.10
2018-07-15T23:58:42.054Z,26.10
